createdAt,value
2023-05-21T00:02:13.067Z,95079.72
2023-05-21T00:04:41.496Z,95082.66
2023-05-21T00:07:08.777Z,95076.31
2023-05-21T00:09:36.891Z,95076.84
2023-05-21T00:12:04.549Z,95073.91
2023-05-21T00:14:33.624Z,95070.19
2023-05-21T00:17:00.806Z,95071.56
2023-05-21T00:19:28.082Z,95066.03
2023-05-21T00:21:55.251Z,95073.78
2023-05-21T00:24:22.342Z,95073.56
2023-05-21T00:26:49.639Z,95074.97
2023-05-21T00:29:16.810Z,95064.34
2023-05-21T00:31:45.591Z,95068.06
2023-05-21T00:36:40.376Z,95054.41
2023-05-21T00:39:07.620Z,95062.09
2023-05-21T00:41:34.850Z,95061.78
2023-05-21T00:44:02.050Z,95055.44
2023-05-21T00:46:29.748Z,95049.88
2023-05-21T00:49:00.460Z,95050.91
2023-05-21T00:51:28.101Z,95046.91
2023-05-21T00:53:55.536Z,95042.63
2023-05-21T00:56:24.639Z,95049.50
2023-05-21T00:58:52.531Z,95049.50
2023-05-21T01:01:19.806Z,95055.03
2023-05-21T01:03:47.764Z,95057.66
2023-05-21T01:06:16.427Z,95053.41
2023-05-21T01:08:43.930Z,95048.84
2023-05-21T01:11:11.831Z,95044.38
2023-05-21T01:13:41.429Z,95046.25
2023-05-21T01:16:10.469Z,95040.69
2023-05-21T01:18:38.523Z,95042.25
2023-05-21T01:21:06.671Z,95050.28
2023-05-21T01:23:35.529Z,95050.16
2023-05-21T01:26:02.792Z,95053.75
2023-05-21T01:28:30.146Z,95060.03
2023-05-21T01:31:14.019Z,95051.81
2023-05-21T01:33:49.084Z,95060.00
2023-05-21T01:36:22.301Z,95059.41
2023-05-21T01:39:01.575Z,95061.19
2023-05-21T01:41:32.806Z,95064.34
2023-05-21T01:44:02.329Z,95065.09
2023-05-21T01:46:33.608Z,95050.97
2023-05-21T01:49:02.334Z,95066.78
2023-05-21T01:51:30.266Z,95059.63
2023-05-21T01:53:58.848Z,95064.13
2023-05-21T01:56:26.038Z,95059.31
2023-05-21T01:58:53.352Z,95056.38
2023-05-21T02:01:20.494Z,95054.22
2023-05-21T02:03:47.757Z,95056.03
2023-05-21T02:06:15.032Z,95059.94
2023-05-21T02:08:42.138Z,95072.38
2023-05-21T02:11:10.810Z,95055.38
2023-05-21T02:13:37.988Z,95062.72
2023-05-21T02:16:05.760Z,95068.81
2023-05-21T02:18:32.891Z,95059.63
2023-05-21T02:21:00.157Z,95068.56
2023-05-21T02:23:27.235Z,95069.56
2023-05-21T02:25:54.434Z,95062.94
2023-05-21T02:28:23.155Z,95062.22
2023-05-21T02:30:50.318Z,95061.69
2023-05-21T02:33:17.491Z,95062.53
2023-05-21T02:35:44.900Z,95056.50
2023-05-21T02:38:12.080Z,95054.03
2023-05-21T02:40:39.343Z,95050.28
2023-05-21T02:43:06.663Z,95047.91
2023-05-21T02:45:35.508Z,95056.25
2023-05-21T02:48:03.125Z,95051.41
2023-05-21T02:50:30.296Z,95047.97
2023-05-21T02:52:57.441Z,95049.84
2023-05-21T02:55:24.640Z,95051.69
2023-05-21T02:57:51.949Z,95060.66
2023-05-21T03:00:19.199Z,95055.31
2023-05-21T03:02:47.864Z,95058.69
2023-05-21T03:05:15.126Z,95058.16
2023-05-21T03:07:42.392Z,95056.03
2023-05-21T03:10:10.720Z,95051.75
2023-05-21T03:12:38.086Z,95052.56
2023-05-21T03:15:06.352Z,95048.22
2023-05-21T03:17:33.746Z,95051.06
2023-05-21T03:20:02.360Z,95039.94
2023-05-21T03:22:29.685Z,95044.94
2023-05-21T03:24:56.867Z,95039.66
2023-05-21T03:27:24.209Z,95042.03
2023-05-21T03:29:51.346Z,95047.22
2023-05-21T03:32:18.732Z,95040.63
2023-05-21T03:34:45.907Z,95046.44
2023-05-21T03:37:14.677Z,95050.84
2023-05-21T03:39:41.886Z,95050.56
2023-05-21T03:42:09.153Z,95054.50
2023-05-21T03:44:36.344Z,95057.94
2023-05-21T03:47:03.690Z,95055.16
2023-05-21T03:49:30.853Z,95061.25
2023-05-21T03:51:58.019Z,95060.72
2023-05-21T03:54:26.556Z,95058.06
2023-05-21T03:56:53.756Z,95067.06
2023-05-21T03:59:20.828Z,95066.16
2023-05-21T04:01:48.031Z,95071.03
2023-05-21T04:04:15.430Z,95063.16
2023-05-21T04:06:42.869Z,95069.19
2023-05-21T04:09:10.033Z,95067.72
2023-05-21T04:11:38.610Z,95072.50
2023-05-21T04:14:05.990Z,95078.59
2023-05-21T04:16:33.235Z,95083.75
2023-05-21T04:19:00.481Z,95079.53
2023-05-21T04:21:27.711Z,95079.69
2023-05-21T04:23:55.007Z,95082.31
2023-05-21T04:26:22.188Z,95088.59
2023-05-21T04:28:50.725Z,95088.31
2023-05-21T04:31:18.023Z,95096.16
2023-05-21T04:33:45.206Z,95090.31
2023-05-21T04:36:12.570Z,95089.19
2023-05-21T04:38:39.771Z,95096.31
2023-05-21T04:41:07.034Z,95094.47
2023-05-21T04:43:34.174Z,95101.84
2023-05-21T04:46:02.763Z,95106.56
2023-05-21T04:48:30.088Z,95121.16
2023-05-21T04:50:57.319Z,95115.66
2023-05-21T04:53:24.587Z,95113.31
2023-05-21T04:55:51.836Z,95110.94
2023-05-21T04:58:18.998Z,95122.13
2023-05-21T05:00:46.526Z,95122.34
2023-05-21T05:03:15.572Z,95122.59
2023-05-21T05:05:43.027Z,95121.06
2023-05-21T05:08:10.287Z,95130.38
2023-05-21T05:10:37.465Z,95120.34
2023-05-21T05:13:04.708Z,95125.13
2023-05-21T05:15:31.987Z,95127.28
2023-05-21T05:17:59.413Z,95124.69
2023-05-21T05:20:28.114Z,95129.50
2023-05-21T05:22:55.392Z,95125.78
2023-05-21T05:25:22.676Z,95131.50
2023-05-21T05:27:49.880Z,95134.47
2023-05-21T05:30:17.398Z,95137.69
2023-05-21T05:32:44.571Z,95130.28
2023-05-21T05:35:11.952Z,95126.88
2023-05-21T05:37:40.567Z,95129.84
2023-05-21T05:40:08.798Z,95126.41
2023-05-21T05:42:35.925Z,95132.63
2023-05-21T05:45:03.682Z,95130.81
2023-05-21T05:47:30.884Z,95128.16
2023-05-21T05:49:58.207Z,95125.56
2023-05-21T05:52:25.393Z,95120.28
2023-05-21T05:54:54.039Z,95124.06
2023-05-21T05:57:21.232Z,95122.22
2023-05-21T05:59:48.437Z,95121.75
2023-05-21T06:02:15.805Z,95129.16
2023-05-21T06:04:43.527Z,95122.56
2023-05-21T06:07:10.696Z,95123.94
2023-05-21T06:09:37.885Z,95130.16
2023-05-21T06:12:08.659Z,95129.91
2023-05-21T06:14:36.870Z,95124.41
2023-05-21T06:17:04.247Z,95126.31
2023-05-21T06:19:31.534Z,95127.41
2023-05-21T06:21:58.945Z,95134.81
2023-05-21T06:24:26.427Z,95136.16
2023-05-21T06:26:53.598Z,95134.88
2023-05-21T06:29:22.297Z,95128.53
2023-05-21T06:31:49.438Z,95130.91
2023-05-21T06:34:16.621Z,95123.78
2023-05-21T06:36:43.784Z,95127.25
2023-05-21T06:39:11.041Z,95124.09
2023-05-21T06:41:38.218Z,95130.75
2023-05-21T06:44:05.817Z,95122.31
2023-05-21T06:46:34.606Z,95127.97
2023-05-21T06:49:01.931Z,95122.94
2023-05-21T06:51:29.186Z,95123.03
2023-05-21T06:53:56.490Z,95124.63
2023-05-21T06:56:23.659Z,95121.72
2023-05-21T06:58:50.992Z,95124.44
2023-05-21T07:01:18.452Z,95128.16
2023-05-21T07:03:47.356Z,95125.03
2023-05-21T07:06:14.644Z,95125.81
2023-05-21T07:08:41.850Z,95128.50
2023-05-21T07:11:09.104Z,95125.84
2023-05-21T07:13:36.842Z,95122.66
2023-05-21T07:16:04.274Z,95125.59
2023-05-21T07:18:31.841Z,95126.63
2023-05-21T07:21:00.530Z,95115.69
2023-05-21T07:23:27.695Z,95112.25
2023-05-21T07:25:54.892Z,95115.94
2023-05-21T07:28:22.011Z,95116.69
2023-05-21T07:30:49.199Z,95115.66
2023-05-21T07:33:16.314Z,95121.50
2023-05-21T07:35:43.516Z,95120.97
2023-05-21T07:38:12.135Z,95110.31
2023-05-21T07:40:39.258Z,95114.00
2023-05-21T07:43:06.413Z,95116.13
2023-05-21T07:45:33.606Z,95115.03
2023-05-21T07:48:00.805Z,95116.56
2023-05-21T07:50:28.153Z,95113.34
2023-05-21T07:52:55.396Z,95106.41
2023-05-21T07:55:24.110Z,95105.31
2023-05-21T07:57:51.291Z,95104.78
2023-05-21T08:00:18.811Z,95102.16
2023-05-21T08:02:46.100Z,95107.25
2023-05-21T08:05:13.441Z,95108.31
2023-05-21T08:07:40.839Z,95118.66
2023-05-21T08:10:09.256Z,95113.75
2023-05-21T08:12:37.892Z,95111.00
2023-05-21T08:15:06.332Z,95118.84
2023-05-21T08:17:33.600Z,95116.31
2023-05-21T08:20:00.877Z,95116.53
2023-05-21T08:22:28.080Z,95123.53
2023-05-21T08:24:55.319Z,95114.69
2023-05-21T08:27:22.594Z,95119.13
2023-05-21T08:29:51.231Z,95119.44
2023-05-21T08:32:18.662Z,95123.19
2023-05-21T08:34:45.850Z,95120.75
2023-05-21T08:37:13.003Z,95120.47
2023-05-21T08:39:40.327Z,95118.84
2023-05-21T08:42:25.635Z,95113.53
2023-05-21T08:45:00.434Z,95098.78
2023-05-21T08:47:35.063Z,95106.78
2023-05-21T08:50:04.605Z,95114.19
2023-05-21T08:52:32.093Z,95116.25
2023-05-21T08:55:00.476Z,95107.56
2023-05-21T08:57:30.768Z,95109.94
2023-05-21T08:59:59.467Z,95118.03
2023-05-21T09:02:27.154Z,95113.38
2023-05-21T09:04:54.904Z,95116.03
2023-05-21T09:07:22.815Z,95112.09
2023-05-21T09:09:56.362Z,95121.38
2023-05-21T09:12:24.439Z,95116.63
2023-05-21T09:14:52.703Z,95117.91
2023-05-21T09:17:21.356Z,95116.19
2023-05-21T09:20:09.801Z,95113.53
2023-05-21T09:22:37.427Z,95106.47
2023-05-21T09:25:07.002Z,95111.22
2023-05-21T09:27:34.385Z,95111.59
2023-05-21T09:30:02.826Z,95118.69
2023-05-21T09:32:31.544Z,95109.25
2023-05-21T09:35:07.391Z,95119.50
2023-05-21T09:37:38.424Z,95116.84
2023-05-21T09:40:16.385Z,95110.94
2023-05-21T09:42:46.786Z,95111.34
2023-05-21T09:45:18.846Z,95113.44
2023-05-21T09:47:49.831Z,95109.44
2023-05-21T09:50:20.437Z,95115.03
2023-05-21T09:52:48.703Z,95115.41
2023-05-21T09:55:17.373Z,95114.69
2023-05-21T09:57:48.137Z,95117.03
2023-05-21T10:00:22.585Z,95113.34
2023-05-21T10:03:02.010Z,95122.88
2023-05-21T10:05:30.717Z,95120.91
2023-05-21T10:08:01.983Z,95119.06
2023-05-21T10:10:30.810Z,95118.56
2023-05-21T10:13:01.088Z,95127.28
2023-05-21T10:15:32.142Z,95126.78
2023-05-21T10:18:03.673Z,95122.41
2023-05-21T10:20:32.086Z,95124.97
2023-05-21T10:23:00.170Z,95117.06
2023-05-21T10:25:28.054Z,95117.19
2023-05-21T10:27:57.264Z,95118.47
2023-05-21T10:30:25.604Z,95119.44
2023-05-21T10:32:56.286Z,95118.06
2023-05-21T10:35:25.291Z,95122.88
2023-05-21T10:37:54.461Z,95119.75
2023-05-21T10:40:21.791Z,95112.72
2023-05-21T10:43:19.385Z,95117.44
2023-05-21T10:46:18.887Z,95109.31
2023-05-21T10:49:05.768Z,95105.03
2023-05-21T10:51:53.281Z,95109.31
2023-05-21T10:54:53.607Z,95106.31
2023-05-21T10:57:44.782Z,95106.91
2023-05-21T11:00:15.948Z,95105.53
2023-05-21T11:02:43.824Z,95105.66
2023-05-21T11:05:11.091Z,95104.03
2023-05-21T11:07:53.407Z,95111.91
2023-05-21T11:10:38.601Z,95112.50
2023-05-21T11:13:08.683Z,95109.66
2023-05-21T11:16:13.683Z,95107.22
2023-05-21T11:18:59.809Z,95106.75
2023-05-21T11:21:31.076Z,95106.84
2023-05-21T11:24:05.715Z,95117.53
2023-05-21T11:27:01.524Z,95108.13
2023-05-21T11:29:40.402Z,95110.50
2023-05-21T11:32:09.449Z,95110.59
2023-05-21T11:34:39.328Z,95104.28
2023-05-21T11:37:26.507Z,95106.50
2023-05-21T11:39:57.264Z,95108.53
2023-05-21T11:42:35.333Z,95104.81
2023-05-21T11:45:03.570Z,95112.00
2023-05-21T11:47:32.264Z,95111.00
2023-05-21T11:50:01.107Z,95101.81
2023-05-21T11:52:29.871Z,95115.63
2023-05-21T11:54:59.236Z,95113.03
2023-05-21T11:57:29.460Z,95111.59
2023-05-21T11:59:57.934Z,95109.00
2023-05-21T12:02:27.486Z,95106.41
2023-05-21T12:04:54.909Z,95109.56
2023-05-21T12:07:22.549Z,95115.47
2023-05-21T12:09:51.569Z,95111.63
2023-05-21T12:12:23.187Z,95109.41
2023-05-21T12:14:52.782Z,95105.28
2023-05-21T12:17:21.823Z,95102.53
2023-05-21T12:19:51.271Z,95107.38
2023-05-21T12:22:18.406Z,95112.19
2023-05-21T12:24:45.844Z,95098.97
2023-05-21T12:27:14.126Z,95102.19
2023-05-21T12:29:44.815Z,95100.13
2023-05-21T12:32:13.895Z,95094.91
2023-05-21T12:34:43.287Z,95090.56
2023-05-21T12:37:12.687Z,95095.97
2023-05-21T12:39:41.707Z,95098.06
2023-05-21T12:42:09.759Z,95095.69
2023-05-21T12:44:39.429Z,95098.25
2023-05-21T12:47:08.511Z,95088.13
2023-05-21T12:49:37.603Z,95092.75
2023-05-21T12:52:08.289Z,95091.69
2023-05-21T12:54:37.128Z,95097.84
2023-05-21T12:57:08.818Z,95087.69
2023-05-21T12:59:48.051Z,95091.31
2023-05-21T13:02:20.300Z,95095.56
2023-05-21T13:04:48.392Z,95106.47
2023-05-21T13:07:16.167Z,95101.66
2023-05-21T13:09:43.795Z,95103.28
2023-05-21T13:12:12.889Z,95099.66
2023-05-21T13:14:40.052Z,95093.75
2023-05-21T13:17:07.517Z,95094.72
2023-05-21T13:19:36.299Z,95090.44
2023-05-21T13:22:03.789Z,95093.50
2023-05-21T13:24:31.065Z,95088.53
2023-05-21T13:26:58.289Z,95084.56
2023-05-21T13:29:25.475Z,95094.25
2023-05-21T13:31:52.751Z,95087.44
2023-05-21T13:34:19.907Z,95090.31
2023-05-21T13:36:48.527Z,95081.84
2023-05-21T13:39:15.750Z,95086.78
2023-05-21T13:41:43.451Z,95090.47
2023-05-21T13:44:10.646Z,95079.63
2023-05-21T13:46:37.947Z,95079.19
2023-05-21T13:49:05.568Z,95077.34
2023-05-21T13:51:39.230Z,95073.00
2023-05-21T13:54:08.129Z,95081.25
2023-05-21T13:56:35.386Z,95079.38
2023-05-21T13:59:02.587Z,95077.28
2023-05-21T14:01:29.867Z,95082.38
2023-05-21T14:03:57.287Z,95078.97
2023-05-21T14:06:24.507Z,95078.22
2023-05-21T14:08:51.907Z,95079.47
2023-05-21T14:11:21.286Z,95077.09
2023-05-21T14:13:48.617Z,95081.44
2023-05-21T14:16:15.985Z,95079.38
2023-05-21T14:18:43.242Z,95068.38
2023-05-21T14:21:10.489Z,95075.09
2023-05-21T14:23:37.728Z,95077.09
2023-05-21T14:26:05.390Z,95068.53
2023-05-21T14:28:34.073Z,95072.91
2023-05-21T14:31:01.481Z,95077.06
2023-05-21T14:33:28.631Z,95074.38
2023-05-21T14:35:55.858Z,95079.88
2023-05-21T14:38:23.106Z,95074.72
2023-05-21T14:40:50.389Z,95079.78
2023-05-21T14:43:17.508Z,95084.13
2023-05-21T14:45:46.373Z,95077.00
2023-05-21T14:48:13.656Z,95070.66
2023-05-21T14:50:41.214Z,95070.09
2023-05-21T14:53:10.032Z,95068.56
2023-05-21T14:55:38.746Z,95072.69
2023-05-21T14:58:06.922Z,95072.59
2023-05-21T15:00:35.539Z,95064.50
2023-05-21T15:03:04.915Z,95071.16
2023-05-21T15:05:32.648Z,95073.31
2023-05-21T15:08:00.301Z,95065.97
2023-05-21T15:10:28.579Z,95064.34
2023-05-21T15:12:55.975Z,95065.88
2023-05-21T15:15:23.364Z,95067.59
2023-05-21T15:17:51.197Z,95066.91
2023-05-21T15:20:19.980Z,95064.09
2023-05-21T15:22:47.636Z,95064.69
2023-05-21T15:25:14.927Z,95064.31
2023-05-21T15:27:50.804Z,95071.69
2023-05-21T15:30:18.124Z,95069.41
2023-05-21T15:32:45.343Z,95068.34
2023-05-21T15:35:12.572Z,95072.19
2023-05-21T15:37:39.908Z,95072.09
2023-05-21T15:40:08.663Z,95078.59
2023-05-21T15:42:35.829Z,95078.34
2023-05-21T15:45:05.452Z,95076.19
2023-05-21T15:47:32.722Z,95079.28
2023-05-21T15:49:59.950Z,95065.41
2023-05-21T15:52:27.171Z,95072.34
2023-05-21T15:54:54.881Z,95074.03
2023-05-21T15:57:22.160Z,95074.09
2023-05-21T15:59:49.423Z,95085.38
2023-05-21T16:02:18.086Z,95086.22
2023-05-21T16:04:45.349Z,95094.25
2023-05-21T16:07:12.629Z,95094.09
2023-05-21T16:09:39.720Z,95088.25
2023-05-21T16:12:07.495Z,95083.16
2023-05-21T16:14:34.670Z,95091.44
2023-05-21T16:17:01.894Z,95083.41
2023-05-21T16:19:30.673Z,95084.78
2023-05-21T16:21:57.972Z,95082.97
2023-05-21T16:24:25.046Z,95086.72
2023-05-21T16:26:52.248Z,95087.00
2023-05-21T16:29:19.381Z,95086.22
2023-05-21T16:31:47.673Z,95084.41
2023-05-21T16:34:14.805Z,95081.28
2023-05-21T16:36:43.683Z,95078.34
2023-05-21T16:39:10.868Z,95078.84
2023-05-21T16:41:38.066Z,95076.03
2023-05-21T16:44:05.322Z,95073.28
2023-05-21T16:46:32.460Z,95072.78
2023-05-21T16:48:59.930Z,95079.38
2023-05-21T16:51:27.124Z,95074.03
2023-05-21T16:53:55.705Z,95075.03
2023-05-21T16:56:22.888Z,95071.84
2023-05-21T16:58:50.085Z,95075.03
2023-05-21T17:01:17.356Z,95071.19
2023-05-21T17:03:44.846Z,95073.88
2023-05-21T17:06:12.125Z,95072.28
2023-05-21T17:08:39.334Z,95079.22
2023-05-21T17:11:08.171Z,95078.22
2023-05-21T17:13:35.417Z,95079.78
2023-05-21T17:16:02.862Z,95082.75
2023-05-21T17:18:30.138Z,95087.59
2023-05-21T17:20:57.607Z,95081.94
2023-05-21T17:23:24.790Z,95082.53
2023-05-21T17:25:52.052Z,95089.81
2023-05-21T17:28:20.969Z,95086.56
2023-05-21T17:30:49.669Z,95096.69
2023-05-21T17:33:17.149Z,95098.63
2023-05-21T17:35:44.368Z,95095.91
2023-05-21T17:38:11.506Z,95099.06
2023-05-21T17:40:38.832Z,95098.56
2023-05-21T17:43:06.034Z,95105.06
2023-05-21T17:45:34.727Z,95097.56
2023-05-21T17:48:02.038Z,95099.94
2023-05-21T17:50:29.207Z,95105.34
2023-05-21T17:52:56.364Z,95109.94
2023-05-21T17:55:23.767Z,95110.53
2023-05-21T17:57:51.485Z,95120.94
2023-05-21T18:00:19.724Z,95122.38
2023-05-21T18:02:48.334Z,95130.94
2023-05-21T18:05:15.609Z,95123.81
2023-05-21T18:07:42.722Z,95137.16
2023-05-21T18:10:10.387Z,95135.34
2023-05-21T18:12:37.582Z,95131.13
2023-05-21T18:15:05.741Z,95134.81
2023-05-21T18:17:32.938Z,95137.03
2023-05-21T18:20:01.474Z,95140.47
2023-05-21T18:22:28.658Z,95134.09
2023-05-21T18:24:55.912Z,95135.13
2023-05-21T18:27:23.088Z,95133.84
2023-05-21T18:29:50.261Z,95139.75
2023-05-21T18:32:17.705Z,95146.69
2023-05-21T18:34:45.123Z,95149.13
2023-05-21T18:37:13.682Z,95152.88
2023-05-21T18:39:40.827Z,95150.66
2023-05-21T18:42:13.592Z,95148.66
2023-05-21T18:44:41.415Z,95157.09
2023-05-21T18:47:08.680Z,95157.66
2023-05-21T18:49:36.348Z,95160.00
2023-05-21T18:52:04.390Z,95162.44
2023-05-21T18:54:33.018Z,95179.38
2023-05-21T18:57:00.644Z,95181.91
2023-05-21T18:59:29.218Z,95183.88
2023-05-21T19:01:56.440Z,95188.16
2023-05-21T19:04:23.625Z,95184.41
2023-05-21T19:06:50.767Z,95185.50
2023-05-21T19:09:17.882Z,95189.22
2023-05-21T19:11:46.546Z,95182.31
2023-05-21T19:14:13.908Z,95185.50
2023-05-21T19:16:41.295Z,95184.16
2023-05-21T19:19:08.609Z,95188.19
2023-05-21T19:21:36.200Z,95194.88
2023-05-21T19:24:05.836Z,95194.66
2023-05-21T19:26:33.643Z,95198.13
2023-05-21T19:29:02.403Z,95203.47
2023-05-21T19:31:29.660Z,95197.91
2023-05-21T19:33:56.812Z,95207.03
2023-05-21T19:36:25.041Z,95201.56
2023-05-21T19:38:52.389Z,95212.00
2023-05-21T19:41:20.428Z,95210.88
2023-05-21T19:43:47.542Z,95208.53
2023-05-21T19:46:19.805Z,95205.28
2023-05-21T19:48:47.994Z,95207.69
2023-05-21T19:51:16.017Z,95204.47
2023-05-21T19:53:43.133Z,95209.00
2023-05-21T19:56:10.388Z,95215.09
2023-05-21T19:58:37.608Z,95218.56
2023-05-21T20:01:05.288Z,95223.31
2023-05-21T20:03:34.105Z,95221.44
2023-05-21T20:06:01.926Z,95224.41
2023-05-21T20:08:29.255Z,95242.00
2023-05-21T20:10:56.698Z,95241.50
2023-05-21T20:13:24.031Z,95244.94
2023-05-21T20:15:51.479Z,95246.00
2023-05-21T20:18:18.756Z,95254.81
2023-05-21T20:20:48.095Z,95249.72
2023-05-21T20:23:15.353Z,95251.31
2023-05-21T20:25:42.570Z,95250.53
2023-05-21T20:28:09.829Z,95258.53
2023-05-21T20:30:53.983Z,95258.53
2023-05-21T20:33:21.227Z,95254.53
2023-05-21T20:35:50.049Z,95247.91
2023-05-21T20:38:17.358Z,95250.84
2023-05-21T20:40:44.906Z,95247.13
2023-05-21T20:43:12.167Z,95257.53
2023-05-21T20:45:39.807Z,95257.25
2023-05-21T20:48:08.246Z,95252.75
2023-05-21T20:50:35.575Z,95262.34
2023-05-21T20:53:04.503Z,95255.97
2023-05-21T20:55:31.744Z,95255.16
2023-05-21T20:57:58.869Z,95260.78
2023-05-21T21:00:26.250Z,95262.91
2023-05-21T21:02:53.566Z,95258.63
2023-05-21T21:05:20.866Z,95258.09
2023-05-21T21:07:48.017Z,95271.19
2023-05-21T21:10:17.106Z,95267.72
2023-05-21T21:12:44.402Z,95268.78
2023-05-21T21:15:12.068Z,95277.84
2023-05-21T21:17:39.655Z,95271.75
2023-05-21T21:20:08.526Z,95274.41
2023-05-21T21:22:35.863Z,95284.78
2023-05-21T21:25:03.050Z,95282.63
2023-05-21T21:27:31.686Z,95291.66
2023-05-21T21:29:58.807Z,95291.94
2023-05-21T21:32:26.606Z,95291.97
2023-05-21T21:34:53.764Z,95292.72
2023-05-21T21:37:21.047Z,95288.78
2023-05-21T21:39:48.229Z,95285.06
2023-05-21T21:42:15.636Z,95289.34
2023-05-21T21:44:44.393Z,95288.84
2023-05-21T21:47:12.010Z,95290.19
2023-05-21T21:49:39.219Z,95289.13
2023-05-21T21:52:06.938Z,95288.06
2023-05-21T21:54:34.348Z,95287.78
2023-05-21T21:57:01.566Z,95282.72
2023-05-21T21:59:28.730Z,95278.50
2023-05-21T22:01:57.490Z,95279.25
2023-05-21T22:04:24.711Z,95278.50
2023-05-21T22:06:51.927Z,95285.41
2023-05-21T22:09:19.452Z,95288.59
2023-05-21T22:11:46.730Z,95283.28
2023-05-21T22:14:14.057Z,95289.38
2023-05-21T22:16:41.214Z,95291.25
2023-05-21T22:19:10.081Z,95296.56
2023-05-21T22:21:37.594Z,95300.28
2023-05-21T22:24:05.074Z,95302.69
2023-05-21T22:26:32.209Z,95300.53
2023-05-21T22:28:59.423Z,95296.56
2023-05-21T22:31:27.133Z,95303.22
2023-05-21T22:33:54.212Z,95305.34
2023-05-21T22:36:22.811Z,95304.56
2023-05-21T22:38:50.071Z,95308.81
2023-05-21T22:41:17.670Z,95306.41
2023-05-21T22:43:44.897Z,95315.22
2023-05-21T22:46:12.191Z,95309.91
2023-05-21T22:48:39.353Z,95313.09
2023-05-21T22:51:06.793Z,95314.41
2023-05-21T22:53:35.519Z,95316.28
2023-05-21T22:56:02.697Z,95318.94
2023-05-21T22:58:29.833Z,95315.75
2023-05-21T23:00:57.517Z,95316.81
2023-05-21T23:03:24.833Z,95316.78
2023-05-21T23:05:52.007Z,95320.22
2023-05-21T23:08:19.451Z,95317.56
2023-05-21T23:10:48.015Z,95320.00
2023-05-21T23:13:15.146Z,95318.91
2023-05-21T23:15:42.311Z,95317.84
2023-05-21T23:18:09.510Z,95323.97
2023-05-21T23:20:36.988Z,95323.19
2023-05-21T23:23:04.512Z,95321.06
2023-05-21T23:25:31.679Z,95314.13
2023-05-21T23:28:00.306Z,95320.00
2023-05-21T23:30:27.392Z,95320.53
2023-05-21T23:32:54.545Z,95318.91
2023-05-21T23:35:21.843Z,95311.72
2023-05-21T23:37:49.046Z,95313.59
2023-05-21T23:40:16.334Z,95312.53
2023-05-21T23:42:43.950Z,95313.03
2023-05-21T23:45:12.764Z,95310.38
2023-05-21T23:47:40.079Z,95313.03
2023-05-21T23:50:08.849Z,95322.59
2023-05-21T23:52:36.053Z,95313.84
2023-05-21T23:55:03.132Z,95316.22
2023-05-21T23:57:30.310Z,95310.38
2023-05-21T23:59:57.455Z,95308.78
